Terminal Aerodrome Forecast
Issued by NWS

Current Version | Previous Version | Text Only | Print | Product List | Glossary On
Versions: 1 2 3 4 5 6 7 8 9 10 11
000
FTUS44 KTSA 131137
TAFXNA
TAF
KXNA 131137Z 1312/1412 21010KT P6SM SKC
     FM131500 23014G20KT P6SM SKC
     FM132000 28012KT P6SM SCT180
     FM140100 34006KT P6SM SCT180=

USA.gov is the U.S. government's official web portal to all federal, state and local government web resources and services.